sensor_id;sensor_type;location;lat;lon;timestamp;pressure;altitude;pressure_sealevel;temperature;humidity
34506;BME280;20748;42.632;23.198;2023-06-26T00:02:09;91925.47;;;19.29;98.97
34506;BME280;20748;42.632;23.198;2023-06-26T00:04:42;91917.13;;;19.27;99.47
34506;BME280;20748;42.632;23.198;2023-06-26T00:07:14;91927.13;;;19.14;99.92
34506;BME280;20748;42.632;23.198;2023-06-26T00:09:47;91918.44;;;19.14;100.00
34506;BME280;20748;42.632;23.198;2023-06-26T00:12:20;91917.94;;;19.08;100.00
34506;BME280;20748;42.632;23.198;2023-06-26T00:14:52;91918.66;;;19.05;100.00
34506;BME280;20748;42.632;23.198;2023-06-26T00:17:25;91921.56;;;19.00;100.00
34506;BME280;20748;42.632;23.198;2023-06-26T00:19:57;91924.84;;;18.93;100.00
34506;BME280;20748;42.632;23.198;2023-06-26T00:22:30;91920.56;;;18.85;100.00
34506;BME280;20748;42.632;23.198;2023-06-26T00:25:02;91923.78;;;18.74;100.00
34506;BME280;20748;42.632;23.198;2023-06-26T00:27:35;91916.75;;;18.82;100.00
34506;BME280;20748;42.632;23.198;2023-06-26T00:30:10;91919.34;;;18.78;100.00
34506;BME280;20748;42.632;23.198;2023-06-26T00:32:43;91917.66;;;18.70;100.00
34506;BME280;20748;42.632;23.198;2023-06-26T00:35:15;91912.03;;;18.72;100.00
34506;BME280;20748;42.632;23.198;2023-06-26T00:37:49;91918.88;;;18.53;100.00
34506;BME280;20748;42.632;23.198;2023-06-26T00:40:22;91912.91;;;18.56;100.00
34506;BME280;20748;42.632;23.198;2023-06-26T00:42:55;91909.50;;;18.56;100.00
34506;BME280;20748;42.632;23.198;2023-06-26T00:45:27;91908.03;;;18.58;100.00
34506;BME280;20748;42.632;23.198;2023-06-26T00:48:14;91910.59;;;18.55;100.00
34506;BME280;20748;42.632;23.198;2023-06-26T00:50:47;91906.63;;;18.64;100.00
34506;BME280;20748;42.632;23.198;2023-06-26T00:53:19;91900.88;;;18.59;100.00
34506;BME280;20748;42.632;23.198;2023-06-26T00:55:52;91898.59;;;18.57;100.00
34506;BME280;20748;42.632;23.198;2023-06-26T00:58:25;91898.59;;;18.57;100.00
34506;BME280;20748;42.632;23.198;2023-06-26T01:00:57;91894.69;;;18.51;100.00
34506;BME280;20748;42.632;23.198;2023-06-26T01:03:30;91896.78;;;18.61;100.00
34506;BME280;20748;42.632;23.198;2023-06-26T01:06:03;91903.97;;;18.64;100.00
34506;BME280;20748;42.632;23.198;2023-06-26T01:08:37;91898.47;;;18.73;100.00
34506;BME280;20748;42.632;23.198;2023-06-26T01:11:10;91902.75;;;18.82;100.00
34506;BME280;20748;42.632;23.198;2023-06-26T01:13:43;91901.72;;;18.86;100.00
34506;BME280;20748;42.632;23.198;2023-06-26T01:16:16;91888.63;;;18.94;100.00
34506;BME280;20748;42.632;23.198;2023-06-26T01:18:52;91888.63;;;18.94;100.00
34506;BME280;20748;42.632;23.198;2023-06-26T01:21:24;91883.00;;;18.95;100.00
34506;BME280;20748;42.632;23.198;2023-06-26T01:24:05;91882.63;;;18.97;100.00
34506;BME280;20748;42.632;23.198;2023-06-26T01:26:43;91873.53;;;18.94;100.00
34506;BME280;20748;42.632;23.198;2023-06-26T01:29:20;91879.56;;;18.95;100.00
34506;BME280;20748;42.632;23.198;2023-06-26T01:31:55;91866.34;;;18.95;99.44
34506;BME280;20748;42.632;23.198;2023-06-26T01:34:27;91861.34;;;18.89;99.67
34506;BME280;20748;42.632;23.198;2023-06-26T01:37:01;91862.13;;;18.90;100.00
34506;BME280;20748;42.632;23.198;2023-06-26T01:39:33;91866.25;;;18.87;100.00
34506;BME280;20748;42.632;23.198;2023-06-26T01:42:07;91870.28;;;18.81;100.00
34506;BME280;20748;42.632;23.198;2023-06-26T01:44:44;91867.22;;;18.79;100.00
34506;BME280;20748;42.632;23.198;2023-06-26T01:47:21;91867.59;;;18.77;100.00
34506;BME280;20748;42.632;23.198;2023-06-26T01:49:56;91864.13;;;18.73;100.00
34506;BME280;20748;42.632;23.198;2023-06-26T01:52:40;91870.19;;;18.74;100.00
34506;BME280;20748;42.632;23.198;2023-06-26T01:55:17;91866.72;;;18.70;100.00
34506;BME280;20748;42.632;23.198;2023-06-26T01:57:55;91863.00;;;18.74;100.00
34506;BME280;20748;42.632;23.198;2023-06-26T02:00:28;91864.06;;;18.70;100.00
34506;BME280;20748;42.632;23.198;2023-06-26T02:03:01;91869.81;;;18.75;100.00
34506;BME280;20748;42.632;23.198;2023-06-26T02:05:35;91871.75;;;18.78;100.00
34506;BME280;20748;42.632;23.198;2023-06-26T02:08:09;91869.53;;;18.81;100.00
34506;BME280;20748;42.632;23.198;2023-06-26T02:10:41;91863.50;;;18.80;100.00
34506;BME280;20748;42.632;23.198;2023-06-26T02:13:15;91865.13;;;18.65;100.00
34506;BME280;20748;42.632;23.198;2023-06-26T02:15:48;91866.53;;;18.59;100.00
34506;BME280;20748;42.632;23.198;2023-06-26T02:18:20;91867.44;;;18.47;100.00
34506;BME280;20748;42.632;23.198;2023-06-26T02:20:54;91859.81;;;18.42;100.00
34506;BME280;20748;42.632;23.198;2023-06-26T02:23:26;91855.00;;;18.47;100.00
34506;BME280;20748;42.632;23.198;2023-06-26T02:26:00;91857.16;;;18.42;100.00
34506;BME280;20748;42.632;23.198;2023-06-26T02:28:33;91858.03;;;18.26;100.00
34506;BME280;20748;42.632;23.198;2023-06-26T02:31:06;91860.38;;;18.31;100.00
34506;BME280;20748;42.632;23.198;2023-06-26T02:33:38;91865.44;;;18.40;100.00
34506;BME280;20748;42.632;23.198;2023-06-26T02:36:12;91849.81;;;18.31;99.84
34506;BME280;20748;42.632;23.198;2023-06-26T02:38:45;91864.19;;;18.34;100.00
34506;BME280;20748;42.632;23.198;2023-06-26T02:41:18;91858.97;;;18.37;100.00
34506;BME280;20748;42.632;23.198;2023-06-26T02:43:51;91862.78;;;18.40;100.00
34506;BME280;20748;42.632;23.198;2023-06-26T02:46:24;91852.03;;;18.29;100.00
34506;BME280;20748;42.632;23.198;2023-06-26T02:48:56;91859.91;;;18.25;99.77
34506;BME280;20748;42.632;23.198;2023-06-26T02:51:31;91859.78;;;18.18;98.86
34506;BME280;20748;42.632;23.198;2023-06-26T02:54:05;91861.84;;;18.09;100.00
34506;BME280;20748;42.632;23.198;2023-06-26T02:56:38;91859.94;;;18.06;100.00
34506;BME280;20748;42.632;23.198;2023-06-26T02:59:21;91862.63;;;18.09;100.00
34506;BME280;20748;42.632;23.198;2023-06-26T03:01:56;91858.28;;;18.01;100.00
34506;BME280;20748;42.632;23.198;2023-06-26T03:04:35;91856.81;;;18.04;99.76
34506;BME280;20748;42.632;23.198;2023-06-26T03:07:09;91855.84;;;17.92;100.00
34506;BME280;20748;42.632;23.198;2023-06-26T03:09:43;91866.63;;;18.03;99.74
34506;BME280;20748;42.632;23.198;2023-06-26T03:12:16;91870.94;;;17.92;100.00
34506;BME280;20748;42.632;23.198;2023-06-26T03:14:49;91861.97;;;17.96;100.00
34506;BME280;20748;42.632;23.198;2023-06-26T03:17:22;91868.03;;;17.97;100.00
34506;BME280;20748;42.632;23.198;2023-06-26T03:19:57;91867.66;;;17.98;100.00
34506;BME280;20748;42.632;23.198;2023-06-26T03:22:35;91865.44;;;18.01;100.00
34506;BME280;20748;42.632;23.198;2023-06-26T03:25:08;91871.41;;;17.97;100.00
34506;BME280;20748;42.632;23.198;2023-06-26T03:27:40;91868.09;;;18.01;100.00
34506;BME280;20748;42.632;23.198;2023-06-26T03:30:14;91874.38;;;17.96;100.00
34506;BME280;20748;42.632;23.198;2023-06-26T03:32:50;91879.00;;;17.99;100.00
34506;BME280;20748;42.632;23.198;2023-06-26T03:35:22;91875.84;;;17.93;100.00
34506;BME280;20748;42.632;23.198;2023-06-26T03:37:55;91871.47;;;18.01;100.00
34506;BME280;20748;42.632;23.198;2023-06-26T03:40:27;91881.69;;;18.03;100.00
34506;BME280;20748;42.632;23.198;2023-06-26T03:43:00;91882.56;;;18.07;100.00
34506;BME280;20748;42.632;23.198;2023-06-26T03:45:37;91880.16;;;18.02;100.00
34506;BME280;20748;42.632;23.198;2023-06-26T03:48:09;91877.53;;;18.02;100.00
34506;BME280;20748;42.632;23.198;2023-06-26T03:50:41;91882.59;;;17.91;100.00
34506;BME280;20748;42.632;23.198;2023-06-26T03:53:14;91876.88;;;17.89;100.00
34506;BME280;20748;42.632;23.198;2023-06-26T03:55:46;91870.56;;;17.93;100.00
34506;BME280;20748;42.632;23.198;2023-06-26T03:58:19;91876.81;;;18.05;100.00
34506;BME280;20748;42.632;23.198;2023-06-26T04:00:52;91872.81;;;18.11;100.00
34506;BME280;20748;42.632;23.198;2023-06-26T04:03:25;91867.19;;;18.13;100.00
34506;BME280;20748;42.632;23.198;2023-06-26T04:05:58;91871.28;;;18.10;100.00
34506;BME280;20748;42.632;23.198;2023-06-26T04:08:30;91867.69;;;18.18;100.00
34506;BME280;20748;42.632;23.198;2023-06-26T04:11:02;91876.38;;;18.19;100.00
34506;BME280;20748;42.632;23.198;2023-06-26T04:13:35;91877.81;;;18.16;100.00
34506;BME280;20748;42.632;23.198;2023-06-26T04:16:08;91873.88;;;18.26;100.00
34506;BME280;20748;42.632;23.198;2023-06-26T04:18:40;91876.53;;;18.26;100.00
34506;BME280;20748;42.632;23.198;2023-06-26T04:21:13;91878.50;;;18.33;100.00
34506;BME280;20748;42.632;23.198;2023-06-26T04:23:45;91874.13;;;18.41;100.00
34506;BME280;20748;42.632;23.198;2023-06-26T04:26:19;91887.28;;;18.37;100.00
34506;BME280;20748;42.632;23.198;2023-06-26T04:28:51;91889.09;;;18.13;100.00
34506;BME280;20748;42.632;23.198;2023-06-26T04:31:25;91886.25;;;18.22;100.00
34506;BME280;20748;42.632;23.198;2023-06-26T04:33:57;91882.69;;;18.34;100.00
34506;BME280;20748;42.632;23.198;2023-06-26T04:36:31;91881.38;;;18.44;99.42
34506;BME280;20748;42.632;23.198;2023-06-26T04:39:05;91888.25;;;18.48;99.92
34506;BME280;20748;42.632;23.198;2023-06-26T04:41:37;91889.78;;;18.30;100.00
34506;BME280;20748;42.632;23.198;2023-06-26T04:44:10;91886.28;;;18.45;100.00
34506;BME280;20748;42.632;23.198;2023-06-26T04:46:43;91884.00;;;18.44;100.00
34506;BME280;20748;42.632;23.198;2023-06-26T04:49:16;91889.28;;;18.44;100.00
34506;BME280;20748;42.632;23.198;2023-06-26T04:51:49;91886.72;;;18.47;100.00
34506;BME280;20748;42.632;23.198;2023-06-26T04:54:22;91885.78;;;18.59;99.45
34506;BME280;20748;42.632;23.198;2023-06-26T04:56:54;91884.03;;;18.67;98.83
34506;BME280;20748;42.632;23.198;2023-06-26T04:59:27;91888.59;;;18.70;99.81
34506;BME280;20748;42.632;23.198;2023-06-26T05:02:00;91890.25;;;18.78;99.35
34506;BME280;20748;42.632;23.198;2023-06-26T05:04:32;91888.75;;;18.77;96.93
34506;BME280;20748;42.632;23.198;2023-06-26T05:07:05;91891.22;;;18.90;97.39
34506;BME280;20748;42.632;23.198;2023-06-26T05:09:37;91892.72;;;18.68;98.67
34506;BME280;20748;42.632;23.198;2023-06-26T05:12:09;91893.25;;;18.77;99.42
34506;BME280;20748;42.632;23.198;2023-06-26T05:14:43;91900.13;;;18.82;99.39
34506;BME280;20748;42.632;23.198;2023-06-26T05:17:17;91893.38;;;18.84;98.68
34506;BME280;20748;42.632;23.198;2023-06-26T05:19:50;91898.72;;;18.88;97.71
34506;BME280;20748;42.632;23.198;2023-06-26T05:22:23;91903.34;;;18.95;98.84
34506;BME280;20748;42.632;23.198;2023-06-26T05:24:58;91898.06;;;18.95;98.02
34506;BME280;20748;42.632;23.198;2023-06-26T05:27:33;91901.72;;;18.86;96.50
34506;BME280;20748;42.632;23.198;2023-06-26T05:30:06;91901.66;;;18.83;97.68
34506;BME280;20748;42.632;23.198;2023-06-26T05:32:40;91890.91;;;18.72;97.97
34506;BME280;20748;42.632;23.198;2023-06-26T05:35:13;91896.47;;;18.67;97.87
34506;BME280;20748;42.632;23.198;2023-06-26T05:37:47;91902.59;;;18.71;98.63
34506;BME280;20748;42.632;23.198;2023-06-26T05:40:20;91897.91;;;18.84;98.92
34506;BME280;20748;42.632;23.198;2023-06-26T05:42:53;91911.28;;;18.95;98.41
34506;BME280;20748;42.632;23.198;2023-06-26T05:45:26;91902.19;;;18.92;96.67
34506;BME280;20748;42.632;23.198;2023-06-26T05:47:59;91907.31;;;19.04;96.89
34506;BME280;20748;42.632;23.198;2023-06-26T05:50:32;91903.44;;;19.22;97.06
34506;BME280;20748;42.632;23.198;2023-06-26T05:53:05;91913.34;;;19.28;96.16
34506;BME280;20748;42.632;23.198;2023-06-26T05:55:38;91908.28;;;19.43;94.85
34506;BME280;20748;42.632;23.198;2023-06-26T05:58:14;91913.97;;;19.45;95.60
34506;BME280;20748;42.632;23.198;2023-06-26T06:00:46;91913.28;;;19.48;95.02
34506;BME280;20748;42.632;23.198;2023-06-26T06:03:19;91916.94;;;19.40;94.23
34506;BME280;20748;42.632;23.198;2023-06-26T06:05:52;91921.78;;;19.34;94.66
34506;BME280;20748;42.632;23.198;2023-06-26T06:08:24;91914.97;;;19.33;94.16
34506;BME280;20748;42.632;23.198;2023-06-26T06:10:56;91920.00;;;19.42;95.11
34506;BME280;20748;42.632;23.198;2023-06-26T06:13:29;91924.31;;;19.54;94.52
34506;BME280;20748;42.632;23.198;2023-06-26T06:16:01;91921.88;;;19.41;92.95
34506;BME280;20748;42.632;23.198;2023-06-26T06:18:35;91919.69;;;19.47;93.28
34506;BME280;20748;42.632;23.198;2023-06-26T06:21:09;91917.09;;;19.51;93.99
34506;BME280;20748;42.632;23.198;2023-06-26T06:23:41;91913.09;;;19.61;92.59
34506;BME280;20748;42.632;23.198;2023-06-26T06:26:14;91917.00;;;19.70;92.78
34506;BME280;20748;42.632;23.198;2023-06-26T06:28:46;91909.84;;;19.71;91.10
34506;BME280;20748;42.632;23.198;2023-06-26T06:31:18;91920.81;;;19.73;91.64
34506;BME280;20748;42.632;23.198;2023-06-26T06:34:02;91911.44;;;19.79;91.94
34506;BME280;20748;42.632;23.198;2023-06-26T06:36:34;91906.09;;;20.03;90.64
34506;BME280;20748;42.632;23.198;2023-06-26T06:39:06;91908.19;;;20.20;87.43
34506;BME280;20748;42.632;23.198;2023-06-26T06:41:39;91904.28;;;20.10;87.62
34506;BME280;20748;42.632;23.198;2023-06-26T06:44:11;91902.19;;;20.23;87.23
34506;BME280;20748;42.632;23.198;2023-06-26T06:46:43;91904.25;;;20.37;86.72
34506;BME280;20748;42.632;23.198;2023-06-26T06:49:16;91907.66;;;20.42;87.56
34506;BME280;20748;42.632;23.198;2023-06-26T06:51:49;91911.44;;;20.41;87.75
34506;BME280;20748;42.632;23.198;2023-06-26T06:54:21;91908.22;;;20.58;87.04
34506;BME280;20748;42.632;23.198;2023-06-26T06:56:53;91909.22;;;20.81;86.94
34506;BME280;20748;42.632;23.198;2023-06-26T06:59:26;91916.13;;;20.89;86.74
34506;BME280;20748;42.632;23.198;2023-06-26T07:01:58;91907.66;;;20.76;87.58
34506;BME280;20748;42.632;23.198;2023-06-26T07:04:31;91905.44;;;20.82;88.80
34506;BME280;20748;42.632;23.198;2023-06-26T07:07:04;91909.94;;;20.77;85.62
34506;BME280;20748;42.632;23.198;2023-06-26T07:09:36;91898.63;;;20.81;84.91
34506;BME280;20748;42.632;23.198;2023-06-26T07:12:09;91905.72;;;20.69;84.37
34506;BME280;20748;42.632;23.198;2023-06-26T07:14:41;91914.09;;;20.75;85.25
34506;BME280;20748;42.632;23.198;2023-06-26T07:17:13;91912.19;;;20.75;84.69
34506;BME280;20748;42.632;23.198;2023-06-26T07:19:46;91914.47;;;20.77;83.02
34506;BME280;20748;42.632;23.198;2023-06-26T07:22:19;91905.56;;;20.92;83.70
34506;BME280;20748;42.632;23.198;2023-06-26T07:24:52;91910.91;;;20.96;82.70
34506;BME280;20748;42.632;23.198;2023-06-26T07:27:25;91908.97;;;20.89;81.92
34506;BME280;20748;42.632;23.198;2023-06-26T07:29:57;91910.88;;;20.92;83.54
34506;BME280;20748;42.632;23.198;2023-06-26T07:32:30;91901.44;;;20.99;83.33
34506;BME280;20748;42.632;23.198;2023-06-26T07:35:04;91911.44;;;21.13;83.36
34506;BME280;20748;42.632;23.198;2023-06-26T07:37:37;91907.66;;;21.17;83.24
34506;BME280;20748;42.632;23.198;2023-06-26T07:40:10;91907.25;;;21.12;82.00
34506;BME280;20748;42.632;23.198;2023-06-26T07:42:42;91909.25;;;21.26;81.88
34506;BME280;20748;42.632;23.198;2023-06-26T07:45:15;91908.50;;;21.25;81.72
34506;BME280;20748;42.632;23.198;2023-06-26T07:47:47;91901.75;;;21.39;78.67
34506;BME280;20748;42.632;23.198;2023-06-26T07:50:20;91906.72;;;21.44;78.35
34506;BME280;20748;42.632;23.198;2023-06-26T07:52:54;91906.41;;;21.53;79.73
34506;BME280;20748;42.632;23.198;2023-06-26T07:55:27;91920.47;;;21.57;80.72
34506;BME280;20748;42.632;23.198;2023-06-26T07:57:59;91919.84;;;21.75;80.16
34506;BME280;20748;42.632;23.198;2023-06-26T08:00:33;91917.28;;;21.89;80.70
34506;BME280;20748;42.632;23.198;2023-06-26T08:03:05;91915.69;;;21.73;78.55
34506;BME280;20748;42.632;23.198;2023-06-26T08:05:42;91926.78;;;21.86;77.22
34506;BME280;20748;42.632;23.198;2023-06-26T08:08:15;91917.31;;;21.93;77.23
34506;BME280;20748;42.632;23.198;2023-06-26T08:10:47;91924.50;;;21.92;76.12
34506;BME280;20748;42.632;23.198;2023-06-26T08:13:20;91917.38;;;22.04;77.27
34506;BME280;20748;42.632;23.198;2023-06-26T08:15:52;91917.81;;;22.17;76.37
34506;BME280;20748;42.632;23.198;2023-06-26T08:18:24;91920.84;;;22.15;76.43
34506;BME280;20748;42.632;23.198;2023-06-26T08:20:57;91920.88;;;22.22;74.99
34506;BME280;20748;42.632;23.198;2023-06-26T08:23:30;91918.28;;;22.37;75.21
34506;BME280;20748;42.632;23.198;2023-06-26T08:26:03;91918.34;;;22.55;74.78
34506;BME280;20748;42.632;23.198;2023-06-26T08:28:35;91916.84;;;22.61;73.42
34506;BME280;20748;42.632;23.198;2023-06-26T08:31:08;91919.91;;;22.67;73.71
34506;BME280;20748;42.632;23.198;2023-06-26T08:33:40;91914.25;;;23.01;72.68
34506;BME280;20748;42.632;23.198;2023-06-26T08:36:13;91912.38;;;23.09;68.35
34506;BME280;20748;42.632;23.198;2023-06-26T08:38:46;91919.63;;;23.23;69.93
34506;BME280;20748;42.632;23.198;2023-06-26T08:41:19;91914.72;;;23.32;69.07
34506;BME280;20748;42.632;23.198;2023-06-26T08:43:51;91917.34;;;23.51;68.84
34506;BME280;20748;42.632;23.198;2023-06-26T08:46:24;91915.06;;;23.45;67.61
34506;BME280;20748;42.632;23.198;2023-06-26T08:49:01;91908.97;;;23.70;66.45
34506;BME280;20748;42.632;23.198;2023-06-26T08:51:36;91918.88;;;23.30;61.27
34506;BME280;20748;42.632;23.198;2023-06-26T08:54:12;91909.75;;;23.56;61.67
34506;BME280;20748;42.632;23.198;2023-06-26T08:56:49;91912.38;;;23.82;60.45
34506;BME280;20748;42.632;23.198;2023-06-26T08:59:22;91921.47;;;24.06;64.28
34506;BME280;20748;42.632;23.198;2023-06-26T09:01:55;91917.31;;;23.98;64.54
34506;BME280;20748;42.632;23.198;2023-06-26T09:04:27;91917.56;;;24.36;62.32
34506;BME280;20748;42.632;23.198;2023-06-26T09:07:02;91909.50;;;24.58;60.16
34506;BME280;20748;42.632;23.198;2023-06-26T09:09:35;91909.81;;;24.71;64.38
34506;BME280;20748;42.632;23.198;2023-06-26T09:12:08;91906.41;;;24.67;62.02
34506;BME280;20748;42.632;23.198;2023-06-26T09:14:41;91913.22;;;24.72;60.30
34506;BME280;20748;42.632;23.198;2023-06-26T09:17:14;91913.56;;;24.85;58.53
34506;BME280;20748;42.632;23.198;2023-06-26T09:19:48;91914.75;;;24.76;64.29
34506;BME280;20748;42.632;23.198;2023-06-26T09:22:21;91918.44;;;25.01;59.52
34506;BME280;20748;42.632;23.198;2023-06-26T09:24:55;91924.47;;;25.12;60.39
34506;BME280;20748;42.632;23.198;2023-06-26T09:27:27;91908.84;;;25.07;59.75
34506;BME280;20748;42.632;23.198;2023-06-26T09:29:59;91909.69;;;24.93;57.74
34506;BME280;20748;42.632;23.198;2023-06-26T09:32:34;91901.50;;;25.22;57.23
34506;BME280;20748;42.632;23.198;2023-06-26T09:35:07;91904.06;;;25.37;58.09
34506;BME280;20748;42.632;23.198;2023-06-26T09:37:41;91912.84;;;25.37;59.24
34506;BME280;20748;42.632;23.198;2023-06-26T09:40:14;91899.56;;;25.26;59.29
34506;BME280;20748;42.632;23.198;2023-06-26T09:42:46;91909.78;;;24.82;58.61
34506;BME280;20748;42.632;23.198;2023-06-26T09:45:19;91905.34;;;24.50;58.20
34506;BME280;20748;42.632;23.198;2023-06-26T09:47:52;91909.78;;;24.75;59.10
34506;BME280;20748;42.632;23.198;2023-06-26T09:50:24;91900.63;;;24.79;58.75
34506;BME280;20748;42.632;23.198;2023-06-26T09:53:07;91909.25;;;25.09;59.38
34506;BME280;20748;42.632;23.198;2023-06-26T09:55:40;91904.59;;;25.17;58.78
34506;BME280;20748;42.632;23.198;2023-06-26T09:58:16;91909.41;;;24.76;56.17
34506;BME280;20748;42.632;23.198;2023-06-26T10:00:49;91905.47;;;25.03;56.09
34506;BME280;20748;42.632;23.198;2023-06-26T10:03:23;91905.09;;;25.01;54.45
34506;BME280;20748;42.632;23.198;2023-06-26T10:05:56;91899.97;;;25.25;56.19
34506;BME280;20748;42.632;23.198;2023-06-26T10:08:31;91900.63;;;24.76;56.68
34506;BME280;20748;42.632;23.198;2023-06-26T10:11:08;91908.34;;;24.59;56.61
34506;BME280;20748;42.632;23.198;2023-06-26T10:13:45;91908.03;;;24.50;55.93
34506;BME280;20748;42.632;23.198;2023-06-26T10:16:23;91900.75;;;24.50;57.82
34506;BME280;20748;42.632;23.198;2023-06-26T10:19:00;91898.75;;;24.69;56.09
34506;BME280;20748;42.632;23.198;2023-06-26T10:21:34;91897.19;;;24.79;54.55
34506;BME280;20748;42.632;23.198;2023-06-26T10:24:08;91899.44;;;24.88;57.76
34506;BME280;20748;42.632;23.198;2023-06-26T10:26:45;91902.88;;;24.88;55.23
34506;BME280;20748;42.632;23.198;2023-06-26T10:29:18;91890.06;;;24.61;58.70
34506;BME280;20748;42.632;23.198;2023-06-26T10:31:55;91901.34;;;24.91;60.89
34506;BME280;20748;42.632;23.198;2023-06-26T10:34:29;91898.97;;;25.04;58.26
34506;BME280;20748;42.632;23.198;2023-06-26T10:37:02;91896.53;;;25.28;55.16
34506;BME280;20748;42.632;23.198;2023-06-26T10:39:49;91888.38;;;25.42;54.17
34506;BME280;20748;42.632;23.198;2023-06-26T10:42:34;91884.03;;;25.63;54.32
34506;BME280;20748;42.632;23.198;2023-06-26T10:45:10;91883.25;;;25.66;53.71
34506;BME280;20748;42.632;23.198;2023-06-26T10:47:46;91883.25;;;25.66;57.13
34506;BME280;20748;42.632;23.198;2023-06-26T10:50:20;91882.66;;;25.44;55.41
34506;BME280;20748;42.632;23.198;2023-06-26T10:53:09;91888.00;;;25.44;56.57
34506;BME280;20748;42.632;23.198;2023-06-26T10:55:47;91878.06;;;25.48;57.04
34506;BME280;20748;42.632;23.198;2023-06-26T10:58:30;91874.31;;;25.38;56.33
34506;BME280;20748;42.632;23.198;2023-06-26T11:01:20;91865.34;;;25.14;57.58
34506;BME280;20748;42.632;23.198;2023-06-26T11:04:05;91884.19;;;25.41;54.44
34506;BME280;20748;42.632;23.198;2023-06-26T11:06:38;91876.31;;;25.23;54.77
34506;BME280;20748;42.632;23.198;2023-06-26T11:09:17;91878.94;;;25.34;55.72
34506;BME280;20748;42.632;23.198;2023-06-26T11:11:59;91882.78;;;25.26;53.99
34506;BME280;20748;42.632;23.198;2023-06-26T11:14:36;91878.94;;;25.34;54.37
34506;BME280;20748;42.632;23.198;2023-06-26T11:17:08;91885.81;;;25.31;54.79
34506;BME280;20748;42.632;23.198;2023-06-26T11:19:42;91882.09;;;25.18;56.67
34506;BME280;20748;42.632;23.198;2023-06-26T11:22:15;91887.50;;;25.07;58.72
34506;BME280;20748;42.632;23.198;2023-06-26T11:24:49;91890.16;;;25.07;56.15
34506;BME280;20748;42.632;23.198;2023-06-26T11:27:31;91876.44;;;25.09;55.70
34506;BME280;20748;42.632;23.198;2023-06-26T11:30:04;91884.75;;;25.22;56.58
34506;BME280;20748;42.632;23.198;2023-06-26T11:32:37;91893.19;;;25.13;57.71
34506;BME280;20748;42.632;23.198;2023-06-26T11:35:09;91889.16;;;24.90;56.89
34506;BME280;20748;42.632;23.198;2023-06-26T11:37:41;91884.25;;;24.77;57.48
34506;BME280;20748;42.632;23.198;2023-06-26T11:40:17;91889.19;;;24.86;60.06
34506;BME280;20748;42.632;23.198;2023-06-26T11:42:51;91894.94;;;24.74;57.75
34506;BME280;20748;42.632;23.198;2023-06-26T11:45:24;91891.47;;;24.80;55.57
34506;BME280;20748;42.632;23.198;2023-06-26T11:47:57;91891.47;;;24.84;56.79
34506;BME280;20748;42.632;23.198;2023-06-26T11:50:29;91888.41;;;24.86;56.09
34506;BME280;20748;42.632;23.198;2023-06-26T11:53:02;91885.75;;;24.86;54.75
34506;BME280;20748;42.632;23.198;2023-06-26T11:55:41;91892.16;;;24.96;56.09
34506;BME280;20748;42.632;23.198;2023-06-26T11:58:15;91886.09;;;24.91;54.90
34506;BME280;20748;42.632;23.198;2023-06-26T12:00:48;91886.50;;;24.86;54.83
34506;BME280;20748;42.632;23.198;2023-06-26T12:03:20;91882.31;;;24.89;53.12
34506;BME280;20748;42.632;23.198;2023-06-26T12:05:53;91884.91;;;24.96;54.32
34506;BME280;20748;42.632;23.198;2023-06-26T12:08:26;91882.69;;;24.87;57.23
34506;BME280;20748;42.632;23.198;2023-06-26T12:10:58;91881.25;;;24.68;54.67
34506;BME280;20748;42.632;23.198;2023-06-26T12:13:32;91882.06;;;24.61;53.21
34506;BME280;20748;42.632;23.198;2023-06-26T12:16:05;91882.44;;;24.60;54.07
34506;BME280;20748;42.632;23.198;2023-06-26T12:18:37;91880.19;;;24.54;56.03
34506;BME280;20748;42.632;23.198;2023-06-26T12:21:33;91879.84;;;24.45;57.15
34506;BME280;20748;42.632;23.198;2023-06-26T12:24:17;91870.00;;;24.35;55.10
34506;BME280;20748;42.632;23.198;2023-06-26T12:26:52;91872.91;;;24.62;55.13
34506;BME280;20748;42.632;23.198;2023-06-26T12:29:31;91866.13;;;24.47;54.11
34506;BME280;20748;42.632;23.198;2023-06-26T12:32:08;91872.88;;;24.66;51.46
34506;BME280;20748;42.632;23.198;2023-06-26T12:34:41;91867.41;;;24.95;52.92
34506;BME280;20748;42.632;23.198;2023-06-26T12:37:13;91869.88;;;25.17;54.18
34506;BME280;20748;42.632;23.198;2023-06-26T12:39:47;91867.78;;;24.93;52.72
34506;BME280;20748;42.632;23.198;2023-06-26T12:42:21;91872.81;;;24.77;54.22
34506;BME280;20748;42.632;23.198;2023-06-26T12:44:55;91877.78;;;24.75;57.95
34506;BME280;20748;42.632;23.198;2023-06-26T12:47:28;91875.09;;;24.82;55.50
34506;BME280;20748;42.632;23.198;2023-06-26T12:50:05;91876.34;;;24.59;52.86
34506;BME280;20748;42.632;23.198;2023-06-26T12:52:38;91870.19;;;24.70;52.13
34506;BME280;20748;42.632;23.198;2023-06-26T12:55:10;91867.81;;;24.90;55.12
34506;BME280;20748;42.632;23.198;2023-06-26T12:57:43;91871.13;;;25.05;55.58
34506;BME280;20748;42.632;23.198;2023-06-26T13:00:17;91873.41;;;25.06;51.79
34506;BME280;20748;42.632;23.198;2023-06-26T13:02:49;91865.75;;;25.12;52.34
34506;BME280;20748;42.632;23.198;2023-06-26T13:05:22;91859.22;;;25.20;52.96
34506;BME280;20748;42.632;23.198;2023-06-26T13:07:54;91865.97;;;25.32;53.54
34506;BME280;20748;42.632;23.198;2023-06-26T13:10:27;91861.66;;;25.46;54.39
34506;BME280;20748;42.632;23.198;2023-06-26T13:13:01;91867.81;;;25.39;53.85
34506;BME280;20748;42.632;23.198;2023-06-26T13:15:34;91865.50;;;25.41;52.19
34506;BME280;20748;42.632;23.198;2023-06-26T13:18:06;91871.22;;;25.40;53.95
34506;BME280;20748;42.632;23.198;2023-06-26T13:20:38;91863.38;;;25.25;54.04
34506;BME280;20748;42.632;23.198;2023-06-26T13:23:11;91873.19;;;25.32;54.29